Time;durP1;ratioP1;P1;durP2;ratioP2;P2;SDS_P1;SDS_P2;PMS_P1;PMS_P2;Temp;Humidity;BMP_temperature;BMP_pressure;BME280_temperature;BME280_humidity;BME280_pressure;Samples;Min_cycle;Max_cycle;Signal;HPM_P1;HPM_P2
2023/12/13 00:01:59;;;;;;;5.85;3.30;;;21.20;67.60;;;;;;5058090;28;20056;-34
2023/12/13 00:04:26;;;;;;;4.43;2.88;;;;;;;;;;5074903;28;20056;-28
2023/12/13 00:06:54;;;;;;;5.05;2.78;;;20.40;67.40;;;;;;5067710;28;20452;-27
2023/12/13 00:09:21;;;;;;;4.35;2.92;;;21.50;68.40;;;;;;5055369;28;20049;-27
2023/12/13 00:11:48;;;;;;;3.70;2.65;;;20.40;51.70;;;;;;5054664;28;20131;-27
2023/12/13 00:14:17;;;;;;;4.82;2.95;;;20.30;67.40;;;;;;5055047;28;20103;-28
2023/12/13 00:16:44;;;;;;;4.20;2.67;;;21.10;68.20;;;;;;5054865;28;20053;-25
2023/12/13 00:19:10;;;;;;;5.50;2.92;;;20.80;49.90;;;;;;5055090;28;20045;-26
2023/12/13 00:21:37;;;;;;;5.70;3.03;;;19.30;67.00;;;;;;5054722;28;20079;-26
2023/12/13 00:24:07;;;;;;;4.97;3.05;;;20.40;67.60;;;;;;5054846;28;20052;-30
2023/12/13 00:26:34;;;;;;;5.45;2.95;;;20.30;68.00;;;;;;5054702;28;20045;-33
2023/12/13 00:29:01;;;;;;;3.50;2.50;;;;;;;;;;5054748;28;20045;-28
2023/12/13 00:31:28;;;;;;;3.58;2.60;;;20.30;67.90;;;;;;5055948;28;20099;-26
2023/12/13 00:33:54;;;;;;;3.50;2.53;;;20.70;68.10;;;;;;5054112;28;20052;-25
2023/12/13 00:36:21;;;;;;;4.38;2.55;;;20.40;67.70;;;;;;5058192;28;20098;-30
2023/12/13 00:38:48;;;;;;;4.40;2.60;;;20.90;69.00;;;;;;5074475;28;20394;-29
2023/12/13 00:41:17;;;;;;;4.03;2.63;;;19.70;54.80;;;;;;5074599;28;20102;-26
2023/12/13 00:43:44;;;;;;;4.30;2.38;;;20.30;63.70;;;;;;5074380;28;20470;-25
2023/12/13 00:46:19;;;;;;;3.85;2.60;;;20.30;67.90;;;;;;5065688;28;20071;-25
2023/12/13 00:48:46;;;;;;;3.92;2.60;;;20.10;67.80;;;;;;5054432;28;20053;-26
2023/12/13 00:51:17;;;;;;;3.35;2.53;;;20.70;68.60;;;;;;5060265;28;20109;-25
2023/12/13 00:53:44;;;;;;;4.05;2.67;;;20.00;61.10;;;;;;5074424;28;20076;-25
2023/12/13 00:56:11;;;;;;;3.33;2.72;;;20.60;68.30;;;;;;5074154;28;20150;-29
2023/12/13 00:58:39;;;;;;;3.67;2.55;;;19.90;51.90;;;;;;5074290;28;20048;-25
2023/12/13 01:01:06;;;;;;;3.45;2.33;;;20.40;58.50;;;;;;5056215;28;20057;-25
2023/12/13 01:03:33;;;;;;;4.47;2.70;;;20.20;69.10;;;;;;5062211;28;20487;-23
2023/12/13 01:06:00;;;;;;;3.63;2.15;;;19.90;52.70;;;;;;5054137;28;20118;-27
2023/12/13 01:08:27;;;;;;;3.35;2.38;;;19.80;68.00;;;;;;5053947;28;20494;-25
2023/12/13 01:10:54;;;;;;;2.97;2.30;;;;;;;;;;5054070;28;20480;-26
2023/12/13 01:13:21;;;;;;;3.58;2.38;;;19.80;68.10;;;;;;5053017;28;20080;-25
2023/12/13 01:15:49;;;;;;;3.38;2.50;;;20.00;48.60;;;;;;5053676;28;20041;-25
2023/12/13 01:18:16;;;;;;;4.18;2.28;;;;;;;;;;5054101;28;20418;-28
2023/12/13 01:20:43;;;;;;;3.40;2.33;;;18.90;68.00;;;;;;5068149;28;20452;-33
2023/12/13 01:23:10;;;;;;;2.20;1.90;;;21.10;68.90;;;;;;5073731;28;20048;-32
2023/12/13 01:25:37;;;;;;;3.28;2.13;;;20.40;69.00;;;;;;5073341;28;20559;-27
2023/12/13 01:28:04;;;;;;;2.95;2.20;;;20.80;68.90;;;;;;5073802;28;20056;-25
2023/12/13 01:30:31;;;;;;;6.30;2.30;;;19.70;59.90;;;;;;5073689;28;20122;-29
2023/12/13 01:32:59;;;;;;;3.58;2.10;;;19.90;48.80;;;;;;5073644;28;20394;-26
2023/12/13 01:35:26;;;;;;;2.67;2.10;;;19.80;68.40;;;;;;5073426;28;20094;-25
2023/12/13 01:37:53;;;;;;;3.20;2.25;;;19.50;49.80;;;;;;5071295;28;20050;-26
2023/12/13 01:40:20;;;;;;;2.88;1.98;;;19.70;68.30;;;;;;5073446;28;20120;-25
2023/12/13 01:42:47;;;;;;;3.15;2.20;;;20.30;57.40;;;;;;5054571;28;20143;-26
2023/12/13 01:45:14;;;;;;;2.58;2.00;;;20.10;69.10;;;;;;5073467;28;20055;-25
2023/12/13 01:47:42;;;;;;;2.78;1.95;;;;;;;;;;5073226;28;20452;-27
2023/12/13 01:50:10;;;;;;;2.25;1.83;;;19.70;69.50;;;;;;5073155;28;20080;-30
2023/12/13 01:52:37;;;;;;;2.85;2.15;;;19.80;50.80;;;;;;5055402;28;20045;-28
2023/12/13 01:55:05;;;;;;;3.67;2.20;;;19.40;68.80;;;;;;5072965;28;20456;-29
2023/12/13 01:57:32;;;;;;;2.83;2.35;;;;;;;;;;5073098;28;20048;-27
2023/12/13 02:00:00;;;;;;;2.75;2.22;;;;;;;;;;5060487;28;20045;-27
2023/12/13 02:02:26;;;;;;;3.25;2.20;;;19.70;69.20;;;;;;5053189;28;20111;-26
2023/12/13 02:04:54;;;;;;;2.95;2.22;;;;;;;;;;5052346;28;20049;-27
2023/12/13 02:07:22;;;;;;;2.97;2.17;;;19.50;68.70;;;;;;5052920;28;20076;-25
2023/12/13 02:09:49;;;;;;;2.38;2.10;;;20.50;69.70;;;;;;5057036;28;20121;-26
2023/12/13 02:12:16;;;;;;;3.10;2.25;;;19.60;59.50;;;;;;5072819;28;20485;-25
2023/12/13 02:14:43;;;;;;;2.67;1.98;;;19.70;69.30;;;;;;5072662;28;20491;-25
2023/12/13 02:17:13;;;;;;;2.72;1.95;;;;;;;;;;5072287;28;20456;-27
2023/12/13 02:19:40;;;;;;;3.00;2.30;;;;;;;;;;5071073;28;20044;-31
2023/12/13 02:22:09;;;;;;;2.28;2.00;;;19.70;69.40;;;;;;5072407;28;20044;-26
2023/12/13 02:24:36;;;;;;;2.22;1.90;;;19.60;49.20;;;;;;5071931;28;20052;-30
2023/12/13 02:27:03;;;;;;;2.70;2.25;;;19.50;69.80;;;;;;5065859;28;20048;-29
2023/12/13 02:29:30;;;;;;;2.42;1.90;;;;;;;;;;5052595;28;20102;-26
2023/12/13 02:31:57;;;;;;;2.80;2.10;;;19.20;68.90;;;;;;5052227;28;20048;-25
2023/12/13 02:34:24;;;;;;;2.92;2.30;;;19.90;70.20;;;;;;5052035;28;20056;-26
2023/12/13 02:36:51;;;;;;;2.60;2.35;;;19.60;67.40;;;;;;5060292;28;20040;-25
2023/12/13 02:39:19;;;;;;;2.80;2.40;;;19.80;53.10;;;;;;5072212;28;20049;-24
2023/12/13 02:41:46;;;;;;;2.72;2.10;;;19.80;69.40;;;;;;5072448;28;20121;-24
2023/12/13 02:44:13;;;;;;;2.92;1.92;;;19.10;49.10;;;;;;5063712;28;20709;-26
2023/12/13 02:46:40;;;;;;;2.45;1.98;;;18.50;68.70;;;;;;5052288;28;20045;-28
2023/12/13 02:49:06;;;;;;;3.20;2.13;;;18.20;68.60;;;;;;5052170;28;20060;-25
2023/12/13 02:51:33;;;;;;;2.25;2.05;;;19.20;65.60;;;;;;5060757;28;20052;-25
2023/12/13 02:54:00;;;;;;;2.80;2.30;;;19.20;69.10;;;;;;5072210;28;20052;-24
2023/12/13 02:56:28;;;;;;;2.28;1.92;;;19.40;49.40;;;;;;5057675;28;20049;-26
2023/12/13 02:58:55;;;;;;;3.30;2.20;;;19.40;50.40;;;;;;5052149;28;20126;-25
2023/12/13 03:01:22;;;;;;;3.90;2.50;;;20.10;69.60;;;;;;5056829;28;20490;-25
2023/12/13 03:03:49;;;;;;;4.15;2.10;;;18.90;69.40;;;;;;5051779;28;20049;-24
2023/12/13 03:06:16;;;;;;;2.70;2.20;;;18.80;54.50;;;;;;5051827;28;20052;-25
2023/12/13 03:08:42;;;;;;;2.80;2.25;;;20.30;70.10;;;;;;5051756;28;20053;-30
2023/12/13 03:11:10;;;;;;;2.53;2.17;;;19.30;49.50;;;;;;5051774;28;20111;-28
2023/12/13 03:13:38;;;;;;;3.33;2.20;;;19.80;70.00;;;;;;5051599;28;20125;-25
2023/12/13 03:16:07;;;;;;;2.33;2.03;;;19.50;69.40;;;;;;5051795;28;20083;-25
2023/12/13 03:18:34;;;;;;;3.38;2.45;;;;;;;;;;5054402;28;20103;-29
2023/12/13 03:21:01;;;;;;;2.05;1.77;;;19.10;69.30;;;;;;5057294;28;20054;-26
2023/12/13 03:23:28;;;;;;;3.05;2.28;;;20.10;58.10;;;;;;5051191;28;20045;-29
2023/12/13 03:25:55;;;;;;;2.78;2.33;;;19.10;69.60;;;;;;5051745;28;20057;-27
2023/12/13 03:28:22;;;;;;;3.17;2.22;;;18.30;68.80;;;;;;5051812;28;20049;-25
2023/12/13 03:30:50;;;;;;;2.63;2.03;;;18.90;69.40;;;;;;5051534;28;20464;-30
2023/12/13 03:33:17;;;;;;;2.80;2.05;;;20.20;69.90;;;;;;5051182;28;20048;-27
2023/12/13 03:35:43;;;;;;;2.55;1.92;;;19.50;69.50;;;;;;5053354;28;20383;-25
2023/12/13 03:38:11;;;;;;;2.75;2.20;;;;;;;;;;5074539;28;20536;-25
2023/12/13 03:40:38;;;;;;;2.78;2.17;;;19.80;70.10;;;;;;5075767;28;20102;-33
2023/12/13 03:43:05;;;;;;;2.72;1.98;;;;;;;;;;5075272;28;20048;-28
2023/12/13 03:45:32;;;;;;;2.50;2.10;;;18.20;66.00;;;;;;5075601;28;20045;-25
2023/12/13 03:48:00;;;;;;;3.47;2.28;;;19.10;49.50;;;;;;5075357;28;20106;-27
2023/12/13 03:50:27;;;;;;;2.60;2.10;;;;;;;;;;5075656;28;20102;-26
2023/12/13 03:52:54;;;;;;;2.20;1.90;;;19.10;69.60;;;;;;5073386;28;20052;-29
2023/12/13 03:55:21;;;;;;;2.15;1.77;;;;;;;;;;5075500;28;20052;-27
2023/12/13 03:57:48;;;;;;;2.78;1.88;;;;;;;;;;5075166;28;20055;-27
2023/12/13 04:00:15;;;;;;;2.67;2.20;;;19.10;49.60;;;;;;5075203;28;20048;-27
2023/12/13 04:02:42;;;;;;;3.15;2.00;;;18.30;69.30;;;;;;5075269;28;20559;-27
2023/12/13 04:05:10;;;;;;;3.25;1.80;;;19.10;49.70;;;;;;5074960;28;20512;-29
2023/12/13 04:07:37;;;;;;;2.67;2.00;;;19.40;57.30;;;;;;5075208;28;20045;-26
2023/12/13 04:10:05;;;;;;;2.97;2.10;;;19.70;65.70;;;;;;5063333;28;20052;-25
2023/12/13 04:12:32;;;;;;;4.07;2.00;;;18.80;69.60;;;;;;5056927;28;20084;-25
2023/12/13 04:14:59;;;;;;;3.25;1.80;;;;;;;;;;5074639;28;20049;-25
2023/12/13 04:17:26;;;;;;;2.55;2.08;;;19.00;69.70;;;;;;5074734;28;20129;-25
2023/12/13 04:19:54;;;;;;;2.22;1.77;;;18.50;69.80;;;;;;5075114;28;20386;-25
2023/12/13 04:22:22;;;;;;;2.33;1.95;;;19.10;70.10;;;;;;5074904;28;20082;-25
2023/12/13 04:24:49;;;;;;;2.33;1.80;;;17.90;69.50;;;;;;5074628;28;20106;-24
2023/12/13 04:27:16;;;;;;;3.22;2.00;;;18.90;65.80;;;;;;5073330;28;20048;-26
2023/12/13 04:29:43;;;;;;;2.25;1.90;;;18.20;69.20;;;;;;5075057;28;20102;-25
2023/12/13 04:32:10;;;;;;;2.05;1.80;;;;;;;;;;5074567;28;20630;-25
2023/12/13 04:34:37;;;;;;;2.85;1.75;;;19.20;70.30;;;;;;5074605;28;20386;-25
2023/12/13 04:37:04;;;;;;;3.10;1.90;;;;;;;;;;5074159;28;20493;-29
2023/12/13 04:39:32;;;;;;;3.03;1.90;;;18.80;69.70;;;;;;5074542;28;20048;-25
2023/12/13 04:41:59;;;;;;;2.13;1.80;;;18.80;69.70;;;;;;5069528;28;20049;-30
2023/12/13 04:44:27;;;;;;;2.97;2.00;;;;;;;;;;5054178;28;20106;-28
2023/12/13 04:46:54;;;;;;;2.47;1.80;;;18.90;51.10;;;;;;5054543;28;20056;-27
2023/12/13 04:49:21;;;;;;;1.98;1.70;;;18.50;70.40;;;;;;5070851;28;20095;-29
2023/12/13 04:51:48;;;;;;;2.22;1.80;;;18.60;58.90;;;;;;5063332;28;20053;-25
2023/12/13 04:54:15;;;;;;;3.05;2.03;;;;;;;;;;5054401;28;20087;-27
2023/12/13 04:56:44;;;;;;;1.83;1.52;;;19.00;49.70;;;;;;5054130;28;20091;-26
2023/12/13 04:59:11;;;;;;;2.35;1.90;;;;;;;;;;5063614;28;20079;-28
2023/12/13 05:01:38;;;;;;;2.20;1.80;;;;;;;;;;5074084;28;20049;-26
2023/12/13 05:04:05;;;;;;;3.20;1.80;;;20.10;53.60;;;;;;5073786;28;20114;-27
2023/12/13 05:06:32;;;;;;;2.50;1.95;;;18.70;70.40;;;;;;5073947;28;20052;-25
2023/12/13 05:08:59;;;;;;;2.53;1.63;;;;;;;;;;5074098;28;20449;-30
2023/12/13 05:11:26;;;;;;;2.30;1.70;;;19.40;66.20;;;;;;5074029;28;20045;-25
2023/12/13 05:13:54;;;;;;;2.15;1.73;;;18.00;69.10;;;;;;5073824;28;20048;-27
2023/12/13 05:16:21;;;;;;;2.50;1.77;;;;;;;;;;5072039;28;20055;-27
2023/12/13 05:18:48;;;;;;;1.60;1.42;;;19.00;69.70;;;;;;5073742;28;20546;-33
2023/12/13 05:21:15;;;;;;;1.95;1.65;;;;;;;;;;5073940;28;20056;-26
2023/12/13 05:23:42;;;;;;;2.10;1.60;;;18.20;69.50;;;;;;5073446;28;20563;-25
2023/12/13 05:26:09;;;;;;;1.95;1.70;;;;;;;;;;5073826;28;20048;-26
2023/12/13 05:28:37;;;;;;;2.00;1.55;;;18.90;69.40;;;;;;5073657;28;20074;-30
2023/12/13 05:31:05;;;;;;;1.80;1.65;;;19.00;61.60;;;;;;5073067;28;20098;-30
2023/12/13 05:33:32;;;;;;;2.13;1.70;;;18.10;69.10;;;;;;5073501;28;20078;-24
2023/12/13 05:35:59;;;;;;;2.33;1.77;;;18.90;69.50;;;;;;5072875;28;20049;-25
2023/12/13 05:38:26;;;;;;;2.50;1.92;;;19.40;57.70;;;;;;5073500;28;20052;-27
2023/12/13 05:40:53;;;;;;;2.80;1.95;;;18.60;69.30;;;;;;5072625;28;20044;-30
2023/12/13 05:43:20;;;;;;;2.63;1.80;;;;;;;;;;5072509;28;20114;-27
2023/12/13 05:45:47;;;;;;;1.83;1.50;;;20.00;70.10;;;;;;5054401;28;20056;-25
2023/12/13 05:48:15;;;;;;;2.78;1.83;;;;;;;;;;5053138;28;20052;-28
2023/12/13 05:50:42;;;;;;;1.98;1.73;;;19.00;49.40;;;;;;5054970;28;20107;-27
2023/12/13 05:53:09;;;;;;;2.22;1.65;;;18.70;69.80;;;;;;5072982;28;20474;-29
2023/12/13 05:55:36;;;;;;;2.50;1.70;;;;;;;;;;5064124;28;20119;-30
2023/12/13 05:58:03;;;;;;;2.13;1.52;;;18.90;69.60;;;;;;5052863;28;20057;-30
2023/12/13 06:00:31;;;;;;;2.35;1.50;;;19.20;70.20;;;;;;5051920;28;20060;-29
2023/12/13 06:02:58;;;;;;;2.03;1.65;;;18.30;69.30;;;;;;5053020;28;20076;-27
2023/12/13 06:05:27;;;;;;;4.30;1.90;;;19.10;50.30;;;;;;5052748;28;20061;-24
2023/12/13 06:07:54;;;;;;;2.13;1.58;;;19.10;69.90;;;;;;5052991;28;20110;-31
2023/12/13 06:10:20;;;;;;;1.98;1.50;;;18.50;69.90;;;;;;5052694;28;20049;-25
2023/12/13 06:12:50;;;;;;;1.80;1.45;;;;;;;;;;5052963;28;20057;-25
2023/12/13 06:15:17;;;;;;;1.90;1.40;;;18.50;61.80;;;;;;5052563;28;20049;-27
2023/12/13 06:17:44;;;;;;;1.92;1.50;;;18.80;51.50;;;;;;5052468;28;20058;-25
2023/12/13 06:20:12;;;;;;;2.00;1.60;;;19.00;49.60;;;;;;5052892;28;20114;-28
2023/12/13 06:22:40;;;;;;;1.40;1.30;;;19.40;70.50;;;;;;5052805;28;20464;-25
2023/12/13 06:25:07;;;;;;;1.88;1.50;;;18.60;70.10;;;;;;5052352;28;20061;-25
2023/12/13 06:27:34;;;;;;;1.70;1.50;;;18.80;70.10;;;;;;5052463;28;20053;-24
2023/12/13 06:30:02;;;;;;;1.95;1.65;;;;;;;;;;5052397;28;20525;-26
2023/12/13 06:32:28;;;;;;;1.70;1.60;;;18.90;70.20;;;;;;5052254;28;20407;-25
2023/12/13 06:34:56;;;;;;;2.88;1.60;;;;;;;;;;5052275;28;20053;-27
2023/12/13 06:37:23;;;;;;;2.13;1.42;;;;;;;;;;5064655;28;20044;-25
2023/12/13 06:39:51;;;;;;;2.38;1.65;;;18.20;51.30;;;;;;5052843;28;20049;-25
2023/12/13 06:42:18;;;;;;;1.92;1.67;;;18.80;57.70;;;;;;5072286;28;20098;-27
2023/12/13 06:44:45;;;;;;;1.70;1.48;;;19.90;70.30;;;;;;5071871;28;20052;-25
2023/12/13 06:47:12;;;;;;;2.10;1.50;;;;;;;;;;5072160;28;20053;-27
2023/12/13 06:49:39;;;;;;;1.50;1.30;;;18.00;69.30;;;;;;5072078;28;20106;-27
2023/12/13 06:52:06;;;;;;;2.10;1.50;;;19.50;70.10;;;;;;5060316;28;20644;-25
2023/12/13 06:54:33;;;;;;;1.95;1.60;;;;;;;;;;5069365;28;20052;-27
2023/12/13 06:57:01;;;;;;;2.17;1.40;;;19.10;49.60;;;;;;5069974;28;20106;-26
2023/12/13 06:59:28;;;;;;;1.40;1.30;;;;;;;;;;5071779;28;20114;-25
2023/12/13 07:01:55;;;;;;;1.77;1.50;;;19.30;51.30;;;;;;5072042;28;20052;-30
2023/12/13 07:04:22;;;;;;;1.98;1.35;;;;;;;;;;5071976;28;20052;-27
2023/12/13 07:06:49;;;;;;;1.45;1.23;;;18.40;66.10;;;;;;5065120;28;20053;-25
2023/12/13 07:09:18;;;;;;;1.70;1.40;;;;;;;;;;5052034;28;20120;-28
2023/12/13 07:11:46;;;;;;;2.00;1.60;;;19.20;49.40;;;;;;5058661;28;20037;-27
2023/12/13 07:14:15;;;;;;;1.88;1.55;;;19.00;54.20;;;;;;5071675;28;20572;-27
2023/12/13 07:16:42;;;;;;;2.45;1.60;;;19.20;70.50;;;;;;5071882;28;20102;-25
2023/12/13 07:19:08;;;;;;;2.60;1.52;;;18.90;69.80;;;;;;5062905;28;20087;-25
2023/12/13 07:21:35;;;;;;;1.98;1.50;;;19.10;69.50;;;;;;5061300;28;20053;-25
2023/12/13 07:24:03;;;;;;;1.80;1.40;;;18.90;69.80;;;;;;5051333;28;20118;-24
2023/12/13 07:26:30;;;;;;;2.00;1.23;;;19.00;69.80;;;;;;5051649;28;20079;-25
2023/12/13 07:28:56;;;;;;;2.63;1.35;;;19.20;69.30;;;;;;5051634;28;20053;-25
2023/12/13 07:31:25;;;;;;;1.60;1.30;;;19.20;49.30;;;;;;5051574;28;20601;-27
2023/12/13 07:33:51;;;;;;;1.98;1.38;;;19.00;65.50;;;;;;5051231;28;20162;-31
2023/12/13 07:36:18;;;;;;;2.28;1.50;;;19.10;69.60;;;;;;5053348;28;20555;-28
2023/12/13 07:38:46;;;;;;;1.45;1.30;;;;;;;;;;5051621;28;20088;-27
2023/12/13 07:41:13;;;;;;;1.83;1.30;;;19.80;64.10;;;;;;5051325;28;20060;-27
2023/12/13 07:43:40;;;;;;;2.08;1.58;;;19.10;69.10;;;;;;5051481;28;20053;-29
2023/12/13 07:46:08;;;;;;;1.50;1.20;;;19.10;50.10;;;;;;5051394;28;20060;-29
2023/12/13 07:48:37;;;;;;;1.95;1.50;;;19.50;49.10;;;;;;5051531;28;20055;-29
2023/12/13 07:51:04;;;;;;;2.05;1.33;;;19.50;49.10;;;;;;5053691;28;20037;-27
2023/12/13 07:53:31;;;;;;;2.63;1.40;;;19.40;69.50;;;;;;5051362;28;20457;-32
2023/12/13 07:55:58;;;;;;;1.92;1.33;;;;;;;;;;5051521;28;20560;-29
2023/12/13 07:58:25;;;;;;;1.88;1.38;;;18.70;68.50;;;;;;5051145;28;20122;-27
2023/12/13 08:00:52;;;;;;;1.67;1.30;;;20.30;49.90;;;;;;5060786;28;20529;-27
2023/12/13 08:03:18;;;;;;;1.65;1.42;;;20.00;64.80;;;;;;5069013;28;20386;-28
2023/12/13 08:05:47;;;;;;;1.70;1.38;;;19.60;48.90;;;;;;5049887;28;20095;-25
2023/12/13 08:08:14;;;;;;;2.28;1.38;;;19.20;48.80;;;;;;5052263;28;20410;-26
2023/12/13 08:10:43;;;;;;;2.20;1.38;;;;;;;;;;5052222;28;20103;-27
2023/12/13 08:13:10;;;;;;;2.05;1.30;;;20.20;69.70;;;;;;5050372;28;20053;-27
2023/12/13 08:15:37;;;;;;;1.50;1.23;;;19.80;59.60;;;;;;5049965;28;20045;-29
2023/12/13 08:18:03;;;;;;;2.30;1.30;;;19.40;51.50;;;;;;5051416;28;20087;-27
2023/12/13 08:20:31;;;;;;;1.52;1.30;;;;;;;;;;5051016;28;20092;-28
2023/12/13 08:23:03;;;;;;;1.80;1.35;;;20.30;69.70;;;;;;5052070;28;20080;-25
2023/12/13 08:25:30;;;;;;;1.65;1.30;;;;;;;;;;5055178;28;20059;-25
2023/12/13 08:27:57;;;;;;;2.17;1.50;;;19.60;69.30;;;;;;5054935;28;20053;-27
2023/12/13 08:30:25;;;;;;;1.30;1.10;;;20.80;56.60;;;;;;5054452;28;20102;-29
2023/12/13 08:32:52;;;;;;;2.08;1.33;;;20.10;69.50;;;;;;5055364;28;20426;-25
2023/12/13 08:35:19;;;;;;;2.35;1.40;;;19.80;69.40;;;;;;5055992;28;20712;-32
2023/12/13 08:37:45;;;;;;;2.15;1.45;;;19.70;64.10;;;;;;5061838;28;20052;-31
2023/12/13 08:40:14;;;;;;;2.08;1.20;;;19.70;69.50;;;;;;5064474;28;20091;-24
2023/12/13 08:42:41;;;;;;;2.10;1.70;;;;;;;;;;5062959;28;20045;-25
2023/12/13 08:45:10;;;;;;;1.90;1.40;;;19.90;69.10;;;;;;5063932;28;20102;-26
2023/12/13 08:47:37;;;;;;;1.70;1.33;;;20.10;58.80;;;;;;5060393;28;20410;-25
2023/12/13 08:50:04;;;;;;;1.92;1.50;;;19.30;52.20;;;;;;5062874;28;20460;-27
2023/12/13 08:52:31;;;;;;;1.98;1.40;;;19.90;69.60;;;;;;5063198;28;20044;-24
2023/12/13 08:54:58;;;;;;;2.88;1.60;;;19.70;68.80;;;;;;5062304;28;20103;-26
2023/12/13 08:57:26;;;;;;;2.30;1.48;;;19.50;69.20;;;;;;5061749;28;20048;-25
2023/12/13 08:59:53;;;;;;;1.63;1.25;;;19.40;69.10;;;;;;5053670;28;20056;-29
2023/12/13 09:02:20;;;;;;;3.30;1.40;;;;;;;;;;5053933;28;20110;-30
2023/12/13 09:04:48;;;;;;;3.85;1.30;;;;;;;;;;5053896;28;20057;-24
2023/12/13 09:07:15;;;;;;;1.65;1.30;;;19.80;69.70;;;;;;5053063;28;20048;-25
2023/12/13 09:09:42;;;;;;;2.95;1.42;;;;;;;;;;5053918;28;20048;-26
2023/12/13 09:12:09;;;;;;;2.05;1.48;;;19.00;69.80;;;;;;5053684;28;20045;-26
2023/12/13 09:14:37;;;;;;;2.38;1.58;;;19.60;49.20;;;;;;5053669;28;20090;-26
2023/12/13 09:17:05;;;;;;;2.30;1.38;;;;;;;;;;5053360;28;20559;-27
2023/12/13 09:19:31;;;;;;;1.83;1.42;;;20.60;70.40;;;;;;5058767;28;20070;-29
2023/12/13 09:21:59;;;;;;;2.40;1.40;;;;;;;;;;5073661;28;20114;-28
2023/12/13 09:24:26;;;;;;;1.73;1.40;;;19.90;69.60;;;;;;5073681;28;20052;-31
2023/12/13 09:26:53;;;;;;;2.13;1.60;;;19.20;53.40;;;;;;5073326;28;20106;-25
2023/12/13 09:29:20;;;;;;;1.58;1.35;;;19.60;69.70;;;;;;5067974;28;20041;-25
2023/12/13 09:31:48;;;;;;;2.60;1.52;;;19.60;49.40;;;;;;5062774;28;20063;-29
2023/12/13 09:34:15;;;;;;;2.50;1.30;;;19.50;58.40;;;;;;5057428;28;20052;-26
2023/12/13 09:36:42;;;;;;;2.28;1.58;;;;;;;;;;5058578;28;20049;-25
2023/12/13 09:39:09;;;;;;;1.92;1.50;;;19.00;52.90;;;;;;5063769;28;20045;-31
2023/12/13 09:41:40;;;;;;;2.00;1.63;;;20.70;70.10;;;;;;5062096;28;20094;-31
2023/12/13 09:44:06;;;;;;;2.45;1.50;;;19.40;70.30;;;;;;5061949;28;20504;-32
2023/12/13 09:46:33;;;;;;;2.88;1.55;;;19.50;56.60;;;;;;5065059;28;20403;-28
2023/12/13 09:49:02;;;;;;;3.15;1.77;;;20.50;55.60;;;;;;5062179;28;20101;-26
2023/12/13 09:51:28;;;;;;;2.13;1.50;;;19.80;50.00;;;;;;5064580;28;20472;-25
2023/12/13 09:53:56;;;;;;;1.90;1.40;;;;;;;;;;5052894;28;20076;-27
2023/12/13 09:56:23;;;;;;;1.60;1.45;;;;;;;;;;5064597;28;20061;-26
2023/12/13 09:58:50;;;;;;;2.75;1.35;;;;;;;;;;5069975;28;20123;-25
2023/12/13 10:01:18;;;;;;;2.42;1.42;;;19.10;69.50;;;;;;5073055;28;20049;-28
2023/12/13 10:03:45;;;;;;;3.70;1.70;;;19.80;69.90;;;;;;5063637;28;20048;-25
2023/12/13 10:06:13;;;;;;;5.40;1.63;;;18.90;58.90;;;;;;5072757;28;20105;-26
2023/12/13 10:08:40;;;;;;;3.17;1.42;;;19.10;67.10;;;;;;5072727;28;20086;-26
2023/12/13 10:11:08;;;;;;;3.65;1.65;;;;;;;;;;5072276;28;20052;-29
2023/12/13 10:13:35;;;;;;;3.63;1.50;;;19.30;69.90;;;;;;5072456;28;20049;-31
2023/12/13 10:16:12;;;;;;;2.70;1.58;;;19.60;49.60;;;;;;5063035;28;20052;-27
2023/12/13 10:18:40;;;;;;;4.97;1.40;;;19.80;69.80;;;;;;5067073;28;20115;-30
2023/12/13 10:21:08;;;;;;;4.68;1.70;;;;;;;;;;5072917;28;20044;-25
2023/12/13 10:23:36;;;;;;;3.10;1.67;;;20.30;70.50;;;;;;5072195;28;20048;-28
2023/12/13 10:26:05;;;;;;;3.28;1.52;;;;;;;;;;5061554;28;20056;-28
2023/12/13 10:28:33;;;;;;;3.55;1.48;;;20.50;70.90;;;;;;5052302;28;20496;-28
2023/12/13 10:31:01;;;;;;;2.08;1.45;;;;;;;;;;5062512;28;20110;-27
2023/12/13 10:33:28;;;;;;;2.70;1.70;;;19.70;70.40;;;;;;5062238;28;20107;-30
2023/12/13 10:35:56;;;;;;;1.98;1.70;;;;;;;;;;5059581;28;20504;-27
2023/12/13 10:38:25;;;;;;;2.60;1.50;;;19.40;50.00;;;;;;5065753;28;20123;-27
2023/12/13 10:40:53;;;;;;;2.92;1.83;;;19.10;70.20;;;;;;5063484;28;20049;-31
2023/12/13 10:43:21;;;;;;;2.78;1.77;;;19.30;68.00;;;;;;5072165;28;20060;-26
2023/12/13 10:45:51;;;;;;;2.30;1.58;;;19.70;70.70;;;;;;5071582;28;20494;-25
2023/12/13 10:48:18;;;;;;;3.67;1.60;;;19.20;70.40;;;;;;5070259;28;20451;-25
2023/12/13 10:50:47;;;;;;;2.33;1.40;;;19.50;50.10;;;;;;5053965;28;20041;-26
2023/12/13 10:53:14;;;;;;;4.28;1.50;;;20.40;70.80;;;;;;5057666;28;20053;-29
2023/12/13 10:55:41;;;;;;;2.47;1.60;;;19.50;70.00;;;;;;5054218;28;20103;-31
2023/12/13 10:58:09;;;;;;;3.25;1.30;;;18.40;60.70;;;;;;5054752;28;20048;-33
2023/12/13 11:00:36;;;;;;;2.25;1.55;;;19.70;68.40;;;;;;5060396;28;20051;-31
2023/12/13 11:03:09;;;;;;;2.28;1.30;;;19.70;50.10;;;;;;5061379;28;20060;-25
2023/12/13 11:05:37;;;;;;;2.20;1.20;;;;;;;;;;5061948;28;20106;-26
2023/12/13 11:08:14;;;;;;;2.78;1.40;;;19.80;50.10;;;;;;5069740;28;20049;-31
2023/12/13 11:10:41;;;;;;;3.53;1.45;;;20.50;70.80;;;;;;5069746;28;20755;-30
2023/12/13 11:13:09;;;;;;;4.28;1.52;;;19.90;50.30;;;;;;5069562;28;20057;-28
2023/12/13 11:15:43;;;;;;;2.95;1.42;;;19.90;70.30;;;;;;5069329;28;20624;-29
2023/12/13 11:18:10;;;;;;;2.08;1.45;;;21.00;64.90;;;;;;5069416;28;20121;-33
2023/12/13 11:20:46;;;;;;;4.57;1.55;;;20.20;70.50;;;;;;5056275;28;20049;-32
2023/12/13 11:23:14;;;;;;;2.22;1.50;;;20.30;57.40;;;;;;5069438;28;20082;-29
2023/12/13 11:25:41;;;;;;;2.75;1.40;;;20.80;71.20;;;;;;5070039;28;20533;-29
2023/12/13 11:28:09;;;;;;;2.08;1.48;;;20.10;63.60;;;;;;5071341;28;20048;-31
2023/12/13 11:30:41;;;;;;;3.60;1.80;;;20.40;70.80;;;;;;5069788;28;20056;-27
2023/12/13 11:33:11;;;;;;;2.22;1.33;;;20.30;69.80;;;;;;5071532;28;20040;-27
2023/12/13 11:35:38;;;;;;;2.30;1.42;;;;;;;;;;5070399;28;20079;-26
2023/12/13 11:38:05;;;;;;;3.40;1.50;;;20.20;69.50;;;;;;5051457;28;20110;-26
2023/12/13 11:40:32;;;;;;;3.80;1.50;;;;;;;;;;5071453;28;20056;-26
2023/12/13 11:43:00;;;;;;;1.88;1.17;;;20.40;69.90;;;;;;5071622;28;20098;-25
2023/12/13 11:45:28;;;;;;;2.95;1.40;;;20.70;50.30;;;;;;5071141;28;20044;-27
2023/12/13 11:47:55;;;;;;;1.77;1.30;;;19.80;61.90;;;;;;5071226;28;20131;-26
2023/12/13 11:50:22;;;;;;;2.92;1.95;;;19.90;69.10;;;;;;5071325;28;20044;-25
2023/12/13 11:52:49;;;;;;;2.33;1.50;;;;;;;;;;5051927;28;20095;-26
2023/12/13 11:55:17;;;;;;;2.78;1.50;;;20.30;69.20;;;;;;5050833;28;20129;-25
2023/12/13 11:57:44;;;;;;;1.90;1.38;;;21.00;70.40;;;;;;5053262;28;20052;-29
2023/12/13 12:00:12;;;;;;;1.65;1.30;;;20.90;50.00;;;;;;5055138;28;20040;-27
2023/12/13 12:02:40;;;;;;;3.83;1.40;;;21.00;50.00;;;;;;5055161;28;20063;-28
2023/12/13 12:05:08;;;;;;;2.17;1.38;;;21.00;50.00;;;;;;5054852;28;20131;-28
2023/12/13 12:07:35;;;;;;;1.85;1.30;;;20.80;69.40;;;;;;5055024;28;20103;-29
2023/12/13 12:10:02;;;;;;;1.95;1.30;;;21.80;55.80;;;;;;5060281;28;20731;-26
2023/12/13 12:12:29;;;;;;;4.10;1.30;;;21.20;56.10;;;;;;5075149;28;20059;-25
2023/12/13 12:14:56;;;;;;;2.38;1.40;;;;;;;;;;5074433;28;20055;-25
2023/12/13 12:17:23;;;;;;;1.73;1.23;;;21.30;70.00;;;;;;5069856;28;20636;-26
2023/12/13 12:19:51;;;;;;;1.70;1.20;;;21.60;65.70;;;;;;5054887;28;20049;-25
2023/12/13 12:22:20;;;;;;;2.15;1.40;;;20.50;68.90;;;;;;5054420;28;20387;-26
2023/12/13 12:24:48;;;;;;;2.28;1.40;;;20.50;69.40;;;;;;5054262;28;20053;-27
2023/12/13 12:27:15;;;;;;;2.80;1.38;;;21.40;68.90;;;;;;5070083;28;20079;-27
2023/12/13 12:29:42;;;;;;;2.92;1.20;;;21.10;69.10;;;;;;5074549;28;20113;-30
2023/12/13 12:32:09;;;;;;;3.83;1.38;;;21.40;64.70;;;;;;5074407;28;20445;-29
2023/12/13 12:34:37;;;;;;;2.58;1.50;;;21.40;49.60;;;;;;5068366;28;20072;-25
2023/12/13 12:37:05;;;;;;;3.15;1.13;;;21.40;69.10;;;;;;5062436;28;20082;-25
2023/12/13 12:39:32;;;;;;;2.30;1.20;;;;;;;;;;5063849;28;20180;-27
2023/12/13 12:41:59;;;;;;;1.75;1.30;;;21.50;69.30;;;;;;5060306;28;20444;-26
2023/12/13 12:44:26;;;;;;;1.65;1.20;;;;;;;;;;5064477;28;20071;-26
2023/12/13 12:46:53;;;;;;;1.77;1.40;;;21.30;59.00;;;;;;5064018;28;20045;-25
2023/12/13 12:49:20;;;;;;;2.15;1.20;;;;;;;;;;5063101;28;20043;-26
2023/12/13 12:51:47;;;;;;;2.92;1.48;;;22.00;68.40;;;;;;5062746;28;20513;-31
2023/12/13 12:54:16;;;;;;;1.70;1.20;;;22.90;68.70;;;;;;5054002;28;20098;-33
2023/12/13 12:56:43;;;;;;;1.88;1.33;;;21.30;67.90;;;;;;5055588;28;20056;-25
2023/12/13 12:59:14;;;;;;;1.80;1.30;;;21.20;68.70;;;;;;5054535;28;20052;-25
2023/12/13 13:01:43;;;;;;;2.30;1.50;;;21.60;49.00;;;;;;5053791;28;20502;-26
2023/12/13 13:04:13;;;;;;;2.30;1.80;;;22.10;64.00;;;;;;5053956;28;20532;-25
2023/12/13 13:06:41;;;;;;;2.58;1.33;;;22.30;55.60;;;;;;5054140;28;20053;-25
2023/12/13 13:09:08;;;;;;;2.67;1.30;;;21.30;64.50;;;;;;5053451;28;20115;-25